Time;durP1;ratioP1;P1;durP2;ratioP2;P2;SDS_P1;SDS_P2;PMS_P1;PMS_P2;Temp;Humidity;BMP_temperature;BMP_pressure;BME280_temperature;BME280_humidity;BME280_pressure;Samples;Min_cycle;Max_cycle;Signal;HPM_P1;HPM_P2
2022/01/13 00:01:44;;;;;;;;;;;;;;;-2.87;59.00;101751.44;4442652;32;19977;-88
2022/01/13 00:04:10;;;;;;;;;;;;;;;-2.78;59.00;101749.41;4455627;32;20046;-89
2022/01/13 00:06:36;;;;;;;;;;;;;;;-2.73;59.01;101753.88;4455925;32;20000;-88
2022/01/13 00:09:01;;;;;;;;;;;;;;;-2.81;59.01;101756.91;4470018;32;20581;-89
2022/01/13 00:11:26;;;;;;;;;;;;;;;-2.76;59.00;101758.81;4455671;32;19987;-90
2022/01/13 00:14:10;;;;;;;;;;;;;;;-2.56;59.01;101758.19;4455995;32;19996;-90
2022/01/13 00:19:31;;;;;;;;;;;;;;;-2.71;59.01;101763.34;4455768;32;19993;-89
2022/01/13 00:21:58;;;;;;;;;;;;;;;-2.65;59.02;101763.66;4456807;32;20304;-89
2022/01/13 00:24:24;;;;;;;;;;;;;;;-2.65;59.01;101750.91;4457309;32;20340;-92
2022/01/13 00:26:49;;;;;;;;;;;;;;;-2.42;59.03;101748.72;4457440;32;20015;-91
2022/01/13 00:29:20;;;;;;;;;;;;;;;-2.55;59.02;101759.94;4457704;32;19972;-92
2022/01/13 00:31:45;;;;;;;;;;;;;;;-2.40;59.02;101753.09;4457994;32;19973;-92
2022/01/13 00:34:11;;;;;;;;;;;;;;;-2.32;59.04;101741.63;4457515;32;19999;-92
2022/01/13 00:36:37;;;;;;;;;;;;;;;-2.29;59.04;101744.34;4457445;32;20306;-91
2022/01/13 00:39:03;;;;;;;;;;;;;;;-2.25;59.04;101742.81;4444271;32;19972;-91
2022/01/13 00:41:29;;;;;;;;;;;;;;;-2.08;59.05;101738.59;4444166;32;19991;-92
2022/01/13 00:43:55;;;;;;;;;;;;;;;-2.09;59.05;101747.91;4456288;32;19993;-90
2022/01/13 00:46:26;;;;;;;;;;;;;;;-2.08;59.05;101742.00;4443690;32;20015;-89
2022/01/13 00:48:52;;;;;;;;;;;;;;;-1.92;59.06;101747.06;4457338;32;19981;-93
2022/01/13 00:51:18;;;;;;;;;;;;;;;-2.02;59.06;101744.00;4456939;32;19972;-91
2022/01/13 00:53:43;;;;;;;;;;;;;;;-1.98;59.05;101751.87;4443640;32;20258;-92
2022/01/13 00:56:08;;;;;;;;;;;;;;;-1.96;59.06;101757.94;4456649;32;20034;-91
2022/01/13 00:58:34;;;;;;;;;;;;;;;-1.93;59.06;101755.53;4456403;32;20000;-92
2022/01/13 01:01:00;;;;;;;;;;;;;;;-1.87;59.06;101766.06;4456198;32;20066;-92
2022/01/13 01:03:25;;;;;;;;;;;;;;;-2.00;59.05;101760.25;4444258;32;19988;-92
2022/01/13 01:05:50;;;;;;;;;;;;;;;-1.97;59.06;101770.59;4456571;32;20014;-92
2022/01/13 01:08:16;;;;;;;;;;;;;;;-1.90;59.06;101767.56;4456750;32;19981;-91
2022/01/13 01:10:41;;;;;;;;;;;;;;;-1.86;59.07;101760.16;4456473;32;19996;-90
2022/01/13 01:13:12;;;;;;;;;;;;;;;-1.77;59.07;101758.84;4456900;32;20007;-91
2022/01/13 01:15:39;;;;;;;;;;;;;;;-1.94;59.06;101765.66;4457511;32;19996;-91
2022/01/13 01:18:16;;;;;;;;;;;;;;;-1.96;59.06;101770.69;4444403;32;20037;-93
2022/01/13 01:20:50;;;;;;;;;;;;;;;-1.97;59.05;101773.16;4458490;32;20004;-91
2022/01/13 01:23:20;;;;;;;;;;;;;;;-2.01;59.05;101777.25;4458357;32;20038;-92
2022/01/13 01:26:01;;;;;;;;;;;;;;;-2.02;59.05;101779.72;4457889;32;20007;-91
2022/01/13 01:28:37;;;;;;;;;;;;;;;-1.94;59.06;101773.31;4459019;32;19972;-93
2022/01/13 01:31:02;;;;;;;;;;;;;;;-1.88;59.06;101766.00;4458490;32;19985;-93
2022/01/13 01:33:27;;;;;;;;;;;;;;;-1.86;59.06;101769.50;4457237;32;20032;-93
2022/01/13 01:35:54;;;;;;;;;;;;;;;-1.99;59.05;101778.19;4457375;32;19988;-92
2022/01/13 01:38:20;;;;;;;;;;;;;;;-1.99;59.05;101762.88;4444694;32;20002;-91
2022/01/13 01:40:45;;;;;;;;;;;;;;;-1.90;59.06;101762.44;4457355;32;20571;-93
2022/01/13 01:43:11;;;;;;;;;;;;;;;-1.90;59.06;101765.00;4456801;32;20005;-91
2022/01/13 01:45:43;;;;;;;;;;;;;;;-1.90;59.06;101775.22;4456590;32;20004;-91
2022/01/13 01:48:09;;;;;;;;;;;;;;;-1.97;59.05;101776.59;4457634;32;20277;-92
2022/01/13 01:50:37;;;;;;;;;;;;;;;-1.89;59.05;101774.44;4457094;32;20016;-92
2022/01/13 01:53:02;;;;;;;;;;;;;;;-1.87;59.06;101767.75;4443624;32;20418;-91
2022/01/13 01:55:28;;;;;;;;;;;;;;;-1.93;59.06;101763.19;4456683;32;20000;-92
2022/01/13 01:57:53;;;;;;;;;;;;;;;-1.90;59.06;101770.09;4457009;32;19981;-91
2022/01/13 02:00:19;;;;;;;;;;;;;;;-2.05;59.05;101774.47;4456814;32;20324;-92
2022/01/13 02:02:44;;;;;;;;;;;;;;;-2.13;59.04;101781.69;4443742;32;20309;-92
2022/01/13 02:05:09;;;;;;;;;;;;;;;-2.11;59.04;101779.25;4443427;32;20058;-92
2022/01/13 02:07:35;;;;;;;;;;;;;;;-2.29;59.04;101785.16;4456585;32;20021;-92
2022/01/13 02:10:00;;;;;;;;;;;;;;;-2.29;59.04;101785.16;4444663;32;20007;-93
2022/01/13 02:12:33;;;;;;;;;;;;;;;-2.34;59.03;101778.06;4457213;32;20000;-93
2022/01/13 02:15:15;;;;;;;;;;;;;;;-2.36;59.04;101779.66;4458145;32;20046;-92
2022/01/13 02:17:41;;;;;;;;;;;;;;;-2.34;59.03;101770.41;4444218;32;20001;-91
2022/01/13 02:20:06;;;;;;;;;;;;;;;-2.41;59.03;101768.31;4442583;32;20629;-92
2022/01/13 02:22:32;;;;;;;;;;;;;;;-2.43;59.03;101773.34;4442555;32;20033;-92
2022/01/13 02:24:57;;;;;;;;;;;;;;;-2.50;59.02;101768.72;4455089;32;20004;-91
2022/01/13 02:27:22;;;;;;;;;;;;;;;-2.56;59.02;101768.41;4455145;32;20063;-92
2022/01/13 02:29:48;;;;;;;;;;;;;;;-2.57;59.02;101777.72;4455216;32;20011;-91
2022/01/13 02:32:13;;;;;;;;;;;;;;;-2.65;59.02;101775.53;4443119;32;20009;-95
2022/01/13 02:34:38;;;;;;;;;;;;;;;-2.66;59.02;101782.31;4456582;32;19993;-96
2022/01/13 02:37:04;;;;;;;;;;;;;;;-2.71;59.01;101786.28;4456626;32;20040;-95
2022/01/13 02:39:29;;;;;;;;;;;;;;;-2.68;59.02;101795.78;4456352;32;19991;-91
2022/01/13 02:41:58;;;;;;;;;;;;;;;-2.73;59.01;101795.53;4455148;32;20018;-90
2022/01/13 02:44:24;;;;;;;;;;;;;;;-2.74;59.02;101793.78;4442697;32;20045;-93
2022/01/13 02:49:19;;;;;;;;;;;;;;;-2.61;59.02;101769.81;4455901;32;20020;-90
2022/01/13 02:51:45;;;;;;;;;;;;;;;-2.78;59.01;101767.25;4455922;32;19976;-91
2022/01/13 02:54:11;;;;;;;;;;;;;;;-2.82;59.01;101765.34;4442974;32;20000;-91
2022/01/13 02:56:36;;;;;;;;;;;;;;;-2.71;59.01;101770.13;4455420;32;20745;-92
2022/01/13 02:59:01;;;;;;;;;;;;;;;-2.84;59.00;101756.72;4442594;32;19976;-90
2022/01/13 03:01:27;;;;;;;;;;;;;;;-2.86;59.00;101762.50;4455380;32;20030;-91
2022/01/13 03:03:52;;;;;;;;;;;;;;;-2.96;59.00;101758.59;4455678;32;20068;-90
2022/01/13 03:06:21;;;;;;;;;;;;;;;-2.58;59.02;101755.56;4455054;32;20137;-91
2022/01/13 03:08:47;;;;;;;;;;;;;;;-2.90;59.00;101769.13;4442512;32;19995;-91
2022/01/13 03:11:13;;;;;;;;;;;;;;;-3.01;58.99;101782.09;4454876;32;19984;-90
2022/01/13 03:13:38;;;;;;;;;;;;;;;-2.82;59.01;101778.06;4442451;32;20653;-91
2022/01/13 03:16:07;;;;;;;;;;;;;;;-2.82;59.01;101779.75;4455263;32;19989;-92
2022/01/13 03:18:32;;;;;;;;;;;;;;;-2.86;59.00;101780.34;4469627;32;19981;-90
2022/01/13 03:20:57;;;;;;;;;;;;;;;-2.82;59.01;101788.28;4455402;32;20009;-90
2022/01/13 03:23:22;;;;;;;;;;;;;;;-2.83;59.00;101795.84;4455483;32;19997;-91
2022/01/13 03:25:48;;;;;;;;;;;;;;;-2.91;58.99;101803.03;4456654;32;19977;-91
2022/01/13 03:28:17;;;;;;;;;;;;;;;-2.96;59.00;101812.09;4458278;32;20012;-93
2022/01/13 03:30:43;;;;;;;;;;;;;;;-2.85;59.00;101811.00;4458845;32;20052;-92
2022/01/13 03:33:08;;;;;;;;;;;;;;;-2.88;59.00;101810.84;4446010;32;20000;-94
2022/01/13 03:35:34;;;;;;;;;;;;;;;-2.89;59.00;101801.44;4458542;32;19973;-92
2022/01/13 03:37:59;;;;;;;;;;;;;;;-2.82;59.01;101808.66;4445851;32;20023;-94
2022/01/13 03:40:25;;;;;;;;;;;;;;;-2.78;59.00;101805.47;4458305;32;20022;-93
2022/01/13 03:42:53;;;;;;;;;;;;;;;-2.78;59.00;101794.41;4444302;32;19996;-88
2022/01/13 03:45:18;;;;;;;;;;;;;;;-2.74;59.01;101803.97;4469990;32;20325;-88
2022/01/13 03:47:43;;;;;;;;;;;;;;;-2.83;59.01;101794.16;4455830;32;20006;-89
2022/01/13 03:50:09;;;;;;;;;;;;;;;-2.80;59.01;101796.00;4455782;32;20003;-89
2022/01/13 03:52:34;;;;;;;;;;;;;;;-2.77;59.00;101783.41;4455735;32;20004;-88
2022/01/13 03:55:18;;;;;;;;;;;;;;;-2.77;59.00;101785.97;4470186;32;20082;-90
2022/01/13 03:57:49;;;;;;;;;;;;;;;-2.83;59.00;101783.09;4470401;32;20086;-90
2022/01/13 04:00:40;;;;;;;;;;;;;;;-2.78;59.00;101789.31;4455796;32;20019;-88
2022/01/13 04:03:05;;;;;;;;;;;;;;;-2.82;59.01;101801.00;4456020;32;19997;-88
2022/01/13 04:05:30;;;;;;;;;;;;;;;-2.75;59.01;101791.16;4455552;32;23280;-90
2022/01/13 04:07:56;;;;;;;;;;;;;;;-2.84;59.00;101792.41;4456526;32;19981;-91
2022/01/13 04:10:40;;;;;;;;;;;;;;;-2.65;59.01;101783.19;4457365;32;20004;-93
2022/01/13 04:13:11;;;;;;;;;;;;;;;-2.84;59.00;101788.94;4458461;32;19996;-93
2022/01/13 04:15:45;;;;;;;;;;;;;;;-2.86;59.01;101795.63;4457591;32;20738;-90
2022/01/13 04:18:11;;;;;;;;;;;;;;;-2.89;59.00;101791.25;4458091;32;20007;-92
2022/01/13 04:20:36;;;;;;;;;;;;;;;-2.72;59.01;101786.22;4458274;32;19988;-93
2022/01/13 04:23:01;;;;;;;;;;;;;;;-2.85;59.00;101777.88;4458414;32;20032;-93
2022/01/13 04:25:27;;;;;;;;;;;;;;;-2.85;59.00;101762.59;4458053;32;19981;-92
2022/01/13 04:27:53;;;;;;;;;;;;;;;-2.83;59.00;101752.50;4458043;32;20014;-93
2022/01/13 04:32:44;;;;;;;;;;;;;;;-2.87;59.00;101742.91;4458157;32;20015;-94
2022/01/13 04:35:09;;;;;;;;;;;;;;;-2.63;59.02;101739.13;4458523;32;19973;-92
2022/01/13 04:37:34;;;;;;;;;;;;;;;-2.64;59.02;101739.06;4445103;32;20318;-93
2022/01/13 04:40:00;;;;;;;;;;;;;;;-2.79;59.00;101734.91;4458398;32;20094;-93
2022/01/13 04:42:30;;;;;;;;;;;;;;;-2.88;59.01;101741.16;4458115;32;20041;-92
2022/01/13 04:44:56;;;;;;;;;;;;;;;-2.95;59.00;101741.66;4458161;32;19980;-92
2022/01/13 04:47:21;;;;;;;;;;;;;;;-2.85;59.00;101733.69;4458048;32;19976;-92
2022/01/13 04:49:46;;;;;;;;;;;;;;;-2.95;59.00;101744.19;4457465;32;20231;-92
2022/01/13 04:52:11;;;;;;;;;;;;;;;-2.99;58.99;101739.72;4457337;32;19992;-92
2022/01/13 04:54:37;;;;;;;;;;;;;;;-2.80;59.01;101747.56;4457720;32;19976;-92
2022/01/13 04:57:16;;;;;;;;;;;;;;;-2.82;59.01;101761.91;4457309;32;20339;-92
2022/01/13 04:59:41;;;;;;;;;;;;;;;-2.93;59.00;101752.78;4458808;32;20138;-94
2022/01/13 05:02:06;;;;;;;;;;;;;;;-3.02;58.99;101755.72;4457807;32;19997;-93
2022/01/13 05:04:31;;;;;;;;;;;;;;;-3.04;58.99;101756.44;4457410;32;19988;-92
2022/01/13 05:06:59;;;;;;;;;;;;;;;-3.02;58.99;101760.81;4458479;32;20026;-95
2022/01/13 05:09:24;;;;;;;;;;;;;;;-2.99;59.00;101760.97;4458452;32;19981;-93
2022/01/13 05:11:50;;;;;;;;;;;;;;;-3.05;58.99;101778.50;4458275;32;20003;-93
2022/01/13 05:14:15;;;;;;;;;;;;;;;-3.02;59.00;101767.59;4458623;32;19981;-93
2022/01/13 05:19:39;;;;;;;;;;;;;;;-3.10;58.99;101778.22;4459665;32;19967;-92
2022/01/13 05:24:36;;;;;;;;;;;;;;;-3.02;58.99;101790.53;4471834;32;19963;-89
2022/01/13 05:27:01;;;;;;;;;;;;;;;-3.05;58.99;101800.53;4455013;32;20012;-89
2022/01/13 05:29:26;;;;;;;;;;;;;;;-2.94;59.00;101797.78;4455337;32;20234;-89
2022/01/13 05:31:51;;;;;;;;;;;;;;;-3.04;58.99;101798.06;4455406;32;20034;-90
2022/01/13 05:34:17;;;;;;;;;;;;;;;-2.93;59.00;101796.97;4455707;32;20082;-91
2022/01/13 05:36:42;;;;;;;;;;;;;;;-2.95;59.00;101805.34;4456458;32;20321;-91
2022/01/13 05:39:07;;;;;;;;;;;;;;;-2.79;59.01;101807.94;4456350;32;20008;-92
2022/01/13 05:41:33;;;;;;;;;;;;;;;-2.76;59.00;101809.78;4456355;32;20001;-90
2022/01/13 05:43:58;;;;;;;;;;;;;;;-2.82;59.01;101807.78;4455950;32;19972;-91
2022/01/13 05:46:24;;;;;;;;;;;;;;;-2.67;59.02;101803.50;4456044;32;20045;-91
2022/01/13 05:48:49;;;;;;;;;;;;;;;-2.57;59.02;101795.56;4455634;32;20047;-90
2022/01/13 05:51:14;;;;;;;;;;;;;;;-2.40;59.03;101785.38;4469358;32;20045;-90
2022/01/13 05:53:40;;;;;;;;;;;;;;;-2.50;59.03;101794.22;4454782;32;23067;-90
2022/01/13 05:56:05;;;;;;;;;;;;;;;-2.39;59.03;101793.09;4455578;32;19996;-91
2022/01/13 05:58:30;;;;;;;;;;;;;;;-2.51;59.02;101783.13;4442486;32;20064;-92
2022/01/13 06:00:55;;;;;;;;;;;;;;;-2.40;59.02;101786.25;4455092;32;20023;-90
2022/01/13 06:03:21;;;;;;;;;;;;;;;-2.35;59.03;101782.28;4455199;32;19996;-91
2022/01/13 06:05:46;;;;;;;;;;;;;;;-2.26;59.04;101785.31;4455489;32;19991;-89
2022/01/13 06:08:11;;;;;;;;;;;;;;;-2.24;59.04;101787.94;4455757;32;20150;-90
2022/01/13 06:10:42;;;;;;;;;;;;;;;-2.19;59.04;101789.03;4455674;32;19989;-90
2022/01/13 06:13:07;;;;;;;;;;;;;;;-2.10;59.06;101791.22;4456555;32;20378;-90
2022/01/13 06:15:34;;;;;;;;;;;;;;;-2.02;59.05;101785.69;4455769;32;19980;-90
2022/01/13 06:18:00;;;;;;;;;;;;;;;-1.93;59.05;101778.50;4455725;32;20000;-91
2022/01/13 06:20:25;;;;;;;;;;;;;;;-1.97;59.05;101781.69;4455340;32;20773;-91
2022/01/13 06:22:50;;;;;;;;;;;;;;;-1.93;59.06;101770.84;4455401;32;20039;-91
2022/01/13 06:25:16;;;;;;;;;;;;;;;-1.84;59.06;101767.00;4442434;32;19985;-91
2022/01/13 06:27:41;;;;;;;;;;;;;;;-1.90;59.05;101755.66;4455502;32;20015;-90
2022/01/13 06:30:07;;;;;;;;;;;;;;;-1.83;59.06;101764.53;4455843;32;20307;-91
2022/01/13 06:32:32;;;;;;;;;;;;;;;-1.86;59.06;101756.72;4442490;32;19981;-91
2022/01/13 06:34:58;;;;;;;;;;;;;;;-1.54;59.08;101763.41;4455645;32;19986;-90
2022/01/13 06:37:25;;;;;;;;;;;;;;;-1.70;59.07;101763.44;4455349;32;19985;-92
2022/01/13 06:39:51;;;;;;;;;;;;;;;-1.66;59.08;101768.78;4455993;32;19993;-92
2022/01/13 06:42:18;;;;;;;;;;;;;;;-1.53;59.08;101762.63;4444090;32;20008;-92
2022/01/13 06:44:44;;;;;;;;;;;;;;;-1.47;59.08;101768.00;4455113;32;20025;-88
2022/01/13 06:47:09;;;;;;;;;;;;;;;-1.21;59.10;101771.81;4454758;32;20042;-89
2022/01/13 06:49:34;;;;;;;;;;;;;;;-1.27;59.10;101772.41;4454630;32;19992;-89
2022/01/13 06:51:59;;;;;;;;;;;;;;;-1.47;59.08;101767.12;4454628;32;20028;-89
2022/01/13 06:54:25;;;;;;;;;;;;;;;-1.30;59.10;101767.16;4454920;32;20368;-89
2022/01/13 06:56:50;;;;;;;;;;;;;;;-1.28;59.10;101774.91;4453978;32;24329;-89
2022/01/13 06:59:16;;;;;;;;;;;;;;;-1.17;59.10;101768.63;4440422;32;20026;-89
2022/01/13 07:01:44;;;;;;;;;;;;;;;-1.05;59.11;101769.19;4454293;32;20006;-88
2022/01/13 07:04:10;;;;;;;;;;;;;;;-1.04;59.11;101773.50;4468617;32;20033;-90
2022/01/13 07:06:36;;;;;;;;;;;;;;;-0.92;59.12;101770.66;4442027;32;20027;-90
2022/01/13 07:09:03;;;;;;;;;;;;;;;-0.73;59.12;101763.00;4455128;32;20388;-91
2022/01/13 07:11:28;;;;;;;;;;;;;;;-0.68;59.13;101778.59;4442236;32;20366;-91
2022/01/13 07:13:53;;;;;;;;;;;;;;;-0.60;59.13;101766.13;4455612;32;19989;-91
2022/01/13 07:16:19;;;;;;;;;;;;;;;-0.72;59.14;101749.41;4455857;32;20467;-91
2022/01/13 07:18:45;;;;;;;;;;;;;;;-0.58;59.14;101760.28;4443273;32;20007;-90
2022/01/13 07:21:12;;;;;;;;;;;;;;;-0.40;59.15;101768.78;4455475;32;20059;-91
2022/01/13 07:23:37;;;;;;;;;;;;;;;-0.48;59.14;101774.34;4455123;32;19989;-91
2022/01/13 07:26:02;;;;;;;;;;;;;;;-0.40;59.15;101783.28;4455219;32;20012;-91
2022/01/13 07:28:28;;;;;;;;;;;;;;;-0.33;59.15;101780.16;4455285;32;20000;-91
2022/01/13 07:30:53;;;;;;;;;;;;;;;-0.23;59.16;101778.91;4442480;32;19972;-91
2022/01/13 07:33:18;;;;;;;;;;;;;;;-0.17;59.16;101769.81;4455340;32;20348;-88
2022/01/13 07:35:44;;;;;;;;;;;;;;;-0.21;59.16;101779.84;4455046;32;20608;-91
2022/01/13 07:38:09;;;;;;;;;;;;;;;-0.41;59.15;101786.63;4454954;32;19989;-91
2022/01/13 07:40:34;;;;;;;;;;;;;;;-0.14;59.17;101787.84;4454864;32;20004;-90
2022/01/13 07:43:00;;;;;;;;;;;;;;;-0.20;59.16;101791.84;4454429;32;20720;-90
2022/01/13 07:45:25;;;;;;;;;;;;;;;-0.16;59.16;101794.59;4454381;32;19999;-89
2022/01/13 07:47:50;;;;;;;;;;;;;;;-0.08;59.16;101794.91;4468907;32;20033;-90
2022/01/13 07:50:15;;;;;;;;;;;;;;;0.06;59.17;101795.53;4454795;32;20356;-90
2022/01/13 07:52:41;;;;;;;;;;;;;;;-0.06;59.17;101806.09;4454613;32;20011;-90
2022/01/13 07:55:07;;;;;;;;;;;;;;;-0.05;59.17;101798.47;4442010;32;20005;-91
2022/01/13 07:57:32;;;;;;;;;;;;;;;0.08;59.17;101807.59;4454931;32;20004;-92
2022/01/13 07:59:57;;;;;;;;;;;;;;;0.16;59.18;101807.91;4454719;32;20038;-91
2022/01/13 08:02:22;;;;;;;;;;;;;;;0.26;59.19;101810.94;4454642;32;19984;-90
2022/01/13 08:04:49;;;;;;;;;;;;;;;0.39;59.20;101804.62;4454803;32;20054;-91
2022/01/13 08:07:14;;;;;;;;;;;;;;;0.47;59.20;101804.94;4454498;32;20016;-90
2022/01/13 08:09:39;;;;;;;;;;;;;;;0.60;59.21;101800.41;4454681;32;19992;-91
2022/01/13 08:12:05;;;;;;;;;;;;;;;0.64;59.21;101800.53;4456730;32;19976;-91
2022/01/13 08:14:30;;;;;;;;;;;;;;;0.82;59.22;101798.72;4471275;32;20013;-91
2022/01/13 08:16:59;;;;;;;;;;;;;;;0.76;59.22;101799.34;4457141;32;19988;-91
2022/01/13 08:22:08;;;;;;;;;;;;;;;0.87;59.22;101804.91;4459187;32;20042;-91
2022/01/13 08:24:33;;;;;;;;;;;;;;;0.89;59.23;101805.81;4456789;32;20346;-91
2022/01/13 08:26:59;;;;;;;;;;;;;;;1.12;59.24;101801.59;4456651;32;20007;-90
2022/01/13 08:29:24;;;;;;;;;;;;;;;1.36;59.25;101802.56;4456994;32;20014;-90
2022/01/13 08:31:49;;;;;;;;;;;;;;;1.23;59.24;101798.66;4457099;32;19999;-93
2022/01/13 08:34:16;;;;;;;;;;;;;;;1.20;59.24;101801.09;4457036;32;20345;-91
2022/01/13 08:36:41;;;;;;;;;;;;;;;1.21;59.24;101799.41;4457528;32;20000;-90
2022/01/13 08:39:06;;;;;;;;;;;;;;;1.29;59.25;101807.41;4456664;32;19981;-90
2022/01/13 08:41:31;;;;;;;;;;;;;;;1.25;59.23;101805.53;4457029;32;19992;-91
2022/01/13 08:43:57;;;;;;;;;;;;;;;1.36;59.25;101802.56;4456257;32;19973;-91
2022/01/13 08:46:23;;;;;;;;;;;;;;;1.49;59.26;101786.81;4456211;32;20351;-90
2022/01/13 08:48:48;;;;;;;;;;;;;;;1.66;59.27;101786.56;4456223;32;19976;-90
2022/01/13 08:51:17;;;;;;;;;;;;;;;1.69;59.26;101800.38;4455900;32;19988;-90
2022/01/13 08:53:42;;;;;;;;;;;;;;;1.60;59.26;101784.62;4456487;32;20012;-90
2022/01/13 08:56:07;;;;;;;;;;;;;;;1.65;59.26;101797.62;4456384;32;20009;-89
2022/01/13 08:58:33;;;;;;;;;;;;;;;1.76;59.27;101792.09;4456738;32;20051;-91
2022/01/13 09:00:59;;;;;;;;;;;;;;;1.91;59.28;101790.91;4456358;32;20277;-90
2022/01/13 09:03:24;;;;;;;;;;;;;;;2.03;59.28;101794.75;4456370;32;20083;-91
2022/01/13 09:05:49;;;;;;;;;;;;;;;2.15;59.30;101782.34;4456583;32;20046;-91
2022/01/13 09:08:15;;;;;;;;;;;;;;;2.25;59.30;101780.97;4456737;32;20000;-91
2022/01/13 09:10:40;;;;;;;;;;;;;;;2.22;59.30;101782.56;4456421;32;20024;-92
2022/01/13 09:13:06;;;;;;;;;;;;;;;2.27;59.30;101791.28;4443272;32;20018;-91
2022/01/13 09:17:58;;;;;;;;;;;;;;;2.23;59.30;101792.00;4456125;32;20008;-91
2022/01/13 09:20:24;;;;;;;;;;;;;;;2.39;59.31;101789.16;4454819;32;19984;-89
2022/01/13 09:22:49;;;;;;;;;;;;;;;2.45;59.32;101787.66;4454218;32;19985;-89
2022/01/13 09:25:14;;;;;;;;;;;;;;;2.62;59.32;101797.62;4455034;32;20004;-90
2022/01/13 09:27:40;;;;;;;;;;;;;;;2.49;59.31;101791.19;4455679;32;20041;-90
2022/01/13 09:30:06;;;;;;;;;;;;;;;2.55;59.31;101799.09;4442709;32;19980;-89
2022/01/13 09:32:32;;;;;;;;;;;;;;;2.67;59.32;101796.09;4442155;32;19989;-91
2022/01/13 09:34:57;;;;;;;;;;;;;;;2.85;59.33;101799.25;4456068;32;19992;-91
2022/01/13 09:37:24;;;;;;;;;;;;;;;2.82;59.34;101803.41;4470014;32;20730;-90
2022/01/13 09:39:49;;;;;;;;;;;;;;;3.03;59.35;101804.09;4455579;32;20287;-91
2022/01/13 09:42:15;;;;;;;;;;;;;;;3.14;59.35;101801.88;4455501;32;20026;-90
2022/01/13 09:44:40;;;;;;;;;;;;;;;3.12;59.35;101801.81;4455282;32;20032;-90
2022/01/13 09:47:05;;;;;;;;;;;;;;;3.12;59.35;101800.94;4454848;32;19992;-90
2022/01/13 09:49:31;;;;;;;;;;;;;;;3.30;59.36;101786.91;4441999;32;20000;-91
2022/01/13 09:51:56;;;;;;;;;;;;;;;3.27;59.36;101794.53;4442063;32;20004;-90
2022/01/13 09:54:21;;;;;;;;;;;;;;;3.34;59.36;101785.34;4455281;32;19992;-91
2022/01/13 09:56:46;;;;;;;;;;;;;;;3.46;59.36;101782.22;4455411;32;20015;-90
2022/01/13 09:59:15;;;;;;;;;;;;;;;3.50;59.37;101766.91;4455737;32;20042;-91
2022/01/13 10:01:40;;;;;;;;;;;;;;;3.67;59.38;101757.09;4455197;32;20007;-89
2022/01/13 10:04:05;;;;;;;;;;;;;;;3.70;59.39;101752.03;4455441;32;20139;-91
2022/01/13 10:06:30;;;;;;;;;;;;;;;3.64;59.38;101745.00;4455632;32;20349;-91
2022/01/13 10:08:56;;;;;;;;;;;;;;;3.74;59.39;101740.09;4455256;32;20011;-91
2022/01/13 10:11:25;;;;;;;;;;;;;;;3.58;59.38;101747.44;4442777;32;20007;-90
2022/01/13 10:14:11;;;;;;;;;;;;;;;3.51;59.37;101749.75;4455409;32;20040;-89
2022/01/13 10:16:41;;;;;;;;;;;;;;;3.56;59.37;101749.09;4455142;32;20347;-90
2022/01/13 10:19:06;;;;;;;;;;;;;;;3.61;59.38;101746.63;4454952;32;20317;-90
2022/01/13 10:21:32;;;;;;;;;;;;;;;3.95;59.40;101731.25;4454731;32;20046;-90
2022/01/13 10:24:03;;;;;;;;;;;;;;;4.08;59.41;101729.91;4454650;32;20026;-90
2022/01/13 10:26:29;;;;;;;;;;;;;;;4.38;59.42;101729.78;4454474;32;20028;-90
2022/01/13 10:28:54;;;;;;;;;;;;;;;4.28;59.42;101738.16;4454848;32;19999;-89
2022/01/13 10:31:20;;;;;;;;;;;;;;;4.50;59.43;101735.25;4454528;32;20012;-90
2022/01/13 10:33:45;;;;;;;;;;;;;;;4.68;59.44;101736.53;4454536;32;20571;-89
2022/01/13 10:36:11;;;;;;;;;;;;;;;4.73;59.45;101740.06;4454451;32;20004;-90
2022/01/13 10:38:55;;;;;;;;;;;;;;;4.65;59.44;101734.75;4454486;32;19999;-90
2022/01/13 10:41:36;;;;;;;;;;;;;;;4.49;59.42;101727.47;4441627;32;20039;-91
2022/01/13 10:44:14;;;;;;;;;;;;;;;4.59;59.43;101714.84;4456024;32;20632;-90
2022/01/13 10:46:55;;;;;;;;;;;;;;;4.42;59.43;101713.56;4454431;32;19977;-89
2022/01/13 10:49:22;;;;;;;;;;;;;;;4.18;59.41;101706.09;4454464;32;20644;-89
2022/01/13 10:51:47;;;;;;;;;;;;;;;4.18;59.41;101710.38;4441703;32;20034;-89
2022/01/13 10:54:25;;;;;;;;;;;;;;;3.98;59.41;101707.28;4454647;32;20004;-89
2022/01/13 10:56:50;;;;;;;;;;;;;;;4.14;59.41;101712.00;4454464;32;20628;-90
2022/01/13 10:59:32;;;;;;;;;;;;;;;4.07;59.40;101724.69;4441588;32;20040;-88
2022/01/13 11:02:08;;;;;;;;;;;;;;;3.94;59.39;101708.03;4454535;32;19998;-89
2022/01/13 11:04:34;;;;;;;;;;;;;;;3.87;59.39;101712.16;4454538;32;20011;-90
2022/01/13 11:07:12;;;;;;;;;;;;;;;3.79;59.39;101716.25;4454442;32;19992;-89
2022/01/13 11:09:42;;;;;;;;;;;;;;;3.97;59.39;101714.13;4441512;32;19993;-90
2022/01/13 11:12:07;;;;;;;;;;;;;;;3.91;59.40;101707.97;4454678;32;19989;-88
2022/01/13 11:14:40;;;;;;;;;;;;;;;3.94;59.39;101714.06;4440847;32;20018;-89
2022/01/13 11:17:05;;;;;;;;;;;;;;;3.87;59.39;101695.84;4441877;32;19972;-89
2022/01/13 11:19:30;;;;;;;;;;;;;;;3.82;59.38;101702.56;4453954;32;20038;-89
2022/01/13 11:21:56;;;;;;;;;;;;;;;4.07;59.40;101704.97;4454065;32;20333;-88
2022/01/13 11:24:21;;;;;;;;;;;;;;;4.12;59.42;101702.50;4440866;32;19997;-89
2022/01/13 11:26:47;;;;;;;;;;;;;;;4.25;59.41;101694.22;4453898;32;20041;-89
2022/01/13 11:29:12;;;;;;;;;;;;;;;3.96;59.39;101689.19;4453916;32;19991;-90
2022/01/13 11:31:38;;;;;;;;;;;;;;;3.83;59.38;101684.59;4454296;32;19996;-90
2022/01/13 11:34:03;;;;;;;;;;;;;;;3.77;59.39;101681.81;4453934;32;20415;-89
2022/01/13 11:36:28;;;;;;;;;;;;;;;3.61;59.38;101677.13;4453641;32;20065;-90
2022/01/13 11:38:54;;;;;;;;;;;;;;;3.51;59.37;101675.97;4453833;32;19992;-90
2022/01/13 11:41:19;;;;;;;;;;;;;;;3.53;59.38;101664.00;4441153;32;20095;-90
2022/01/13 11:43:44;;;;;;;;;;;;;;;3.26;59.36;101677.00;4453620;32;20069;-89
2022/01/13 11:46:11;;;;;;;;;;;;;;;3.21;59.36;101678.56;4454767;32;22369;-89
2022/01/13 11:48:41;;;;;;;;;;;;;;;3.45;59.36;101674.94;4443309;32;20417;-88
2022/01/13 11:51:15;;;;;;;;;;;;;;;3.65;59.38;101678.94;4456506;32;20030;-89
2022/01/13 11:53:42;;;;;;;;;;;;;;;3.74;59.39;101670.56;4456855;32;20027;-90
2022/01/13 11:56:07;;;;;;;;;;;;;;;3.92;59.40;101669.34;4443363;32;19977;-88
2022/01/13 11:58:42;;;;;;;;;;;;;;;3.97;59.40;101669.47;4455913;32;20244;-91
2022/01/13 12:01:24;;;;;;;;;;;;;;;3.92;59.40;101663.31;4443249;32;19985;-90
2022/01/13 12:03:56;;;;;;;;;;;;;;;3.97;59.41;101683.22;4443678;32;20045;-89
2022/01/13 12:06:34;;;;;;;;;;;;;;;4.22;59.41;101665.78;4443355;32;19984;-91
2022/01/13 12:08:59;;;;;;;;;;;;;;;3.99;59.41;101654.91;4455980;32;20003;-90
2022/01/13 12:11:38;;;;;;;;;;;;;;;4.24;59.42;101659.84;4455814;32;20000;-90
2022/01/13 12:14:29;;;;;;;;;;;;;;;4.14;59.41;101675.06;4455862;32;19992;-91
2022/01/13 12:16:59;;;;;;;;;;;;;;;4.05;59.40;101664.53;4443657;32;19981;-90
2022/01/13 12:19:38;;;;;;;;;;;;;;;4.41;59.42;101677.44;4469916;32;19996;-88
2022/01/13 12:22:06;;;;;;;;;;;;;;;4.39;59.42;101672.22;4455779;32;19993;-89
2022/01/13 12:24:50;;;;;;;;;;;;;;;4.21;59.42;101679.50;4442863;32;20064;-89
2022/01/13 12:27:38;;;;;;;;;;;;;;;4.45;59.42;101681.81;4470167;32;20029;-89
2022/01/13 12:30:12;;;;;;;;;;;;;;;3.93;59.39;101676.25;4459595;32;20030;-90
2022/01/13 12:32:38;;;;;;;;;;;;;;;4.01;59.40;101676.44;4455980;32;19993;-91
2022/01/13 12:35:04;;;;;;;;;;;;;;;3.99;59.41;101662.62;4470335;32;19977;-90
2022/01/13 12:37:29;;;;;;;;;;;;;;;4.21;59.41;101651.16;4455899;32;20041;-91
2022/01/13 12:39:59;;;;;;;;;;;;;;;4.04;59.40;101637.00;4455802;32;19988;-92
2022/01/13 12:42:25;;;;;;;;;;;;;;;3.98;59.41;101646.31;4442627;32;19997;-91
2022/01/13 12:47:36;;;;;;;;;;;;;;;3.92;59.40;101624.69;4458011;32;19986;-89
2022/01/13 12:50:03;;;;;;;;;;;;;;;4.11;59.41;101621.72;4455541;32;20004;-89
2022/01/13 12:52:28;;;;;;;;;;;;;;;4.25;59.41;101617.75;4442489;32;20015;-88
2022/01/13 12:54:53;;;;;;;;;;;;;;;4.29;59.42;101627.31;4455379;32;20389;-90
2022/01/13 12:57:21;;;;;;;;;;;;;;;4.17;59.41;101632.19;4441584;32;19977;-89
2022/01/13 12:59:47;;;;;;;;;;;;;;;4.11;59.41;101644.06;4456219;32;19991;-88
2022/01/13 13:02:12;;;;;;;;;;;;;;;4.17;59.41;101652.78;4455225;32;20009;-89